createdAt,value
2018-02-21T00:00:00.235Z,36.33
2018-02-21T00:02:27.757Z,35.77
2018-02-21T00:04:55.270Z,41.13
2018-02-21T00:07:22.792Z,38.30
2018-02-21T00:09:50.348Z,39.07
2018-02-21T00:12:17.902Z,39.27
2018-02-21T00:14:45.460Z,35.80
2018-02-21T00:17:12.987Z,39.77
2018-02-21T00:19:41.266Z,40.47
2018-02-21T00:22:09.554Z,40.60
2018-02-21T00:24:37.829Z,40.40
2018-02-21T00:27:06.132Z,39.90
2018-02-21T00:29:33.647Z,40.00
2018-02-21T00:32:01.171Z,40.20
2018-02-21T00:34:28.676Z,38.77
2018-02-21T00:36:56.966Z,37.87
2018-02-21T00:39:24.471Z,39.63
2018-02-21T00:41:52.002Z,42.07
2018-02-21T00:44:19.552Z,41.23
2018-02-21T00:46:47.106Z,40.07
2018-02-21T00:49:14.615Z,40.67
2018-02-21T00:51:42.142Z,39.77
2018-02-21T00:54:09.650Z,41.70
2018-02-21T00:56:37.178Z,44.50
2018-02-21T00:59:04.684Z,39.83
2018-02-21T01:01:32.988Z,38.57
2018-02-21T01:04:00.506Z,39.23
2018-02-21T01:06:28.837Z,37.00
2018-02-21T01:08:56.352Z,35.77
2018-02-21T01:11:24.633Z,37.17
2018-02-21T01:13:52.923Z,39.80
2018-02-21T01:16:20.483Z,38.50
2018-02-21T01:18:48.043Z,40.53
2018-02-21T01:21:15.551Z,40.17
2018-02-21T01:23:43.079Z,41.57
2018-02-21T01:26:10.587Z,38.83
2018-02-21T01:28:38.873Z,41.83
2018-02-21T01:31:07.142Z,37.60
2018-02-21T01:33:35.462Z,39.87
2018-02-21T01:36:02.971Z,37.50
2018-02-21T01:38:31.276Z,38.83
2018-02-21T01:40:58.786Z,40.10
2018-02-21T01:43:26.322Z,42.13
2018-02-21T01:45:53.854Z,41.43
2018-02-21T01:48:21.373Z,43.20
2018-02-21T01:50:52.718Z,45.93
2018-02-21T01:53:20.241Z,45.33
2018-02-21T01:55:47.776Z,40.07
2018-02-21T01:58:15.329Z,40.17
2018-02-21T02:00:42.843Z,38.33
2018-02-21T02:03:10.367Z,39.50
2018-02-21T02:05:37.879Z,39.27
2018-02-21T02:08:06.165Z,40.67
2018-02-21T02:10:34.446Z,39.90
2018-02-21T02:13:02.740Z,40.57
2018-02-21T02:15:30.248Z,38.10
2018-02-21T02:17:57.777Z,37.60
2018-02-21T02:20:25.282Z,38.43
2018-02-21T02:22:53.570Z,40.17
2018-02-21T02:25:23.722Z,37.40
2018-02-21T02:27:51.254Z,40.30
2018-02-21T02:30:18.826Z,43.50
2018-02-21T02:32:46.362Z,42.90
2018-02-21T02:35:14.634Z,43.57
2018-02-21T02:37:42.924Z,42.70
2018-02-21T02:40:10.436Z,40.20
2018-02-21T02:42:37.967Z,42.10
2018-02-21T02:45:05.475Z,42.60
2018-02-21T02:47:33.766Z,38.00
2018-02-21T02:50:02.036Z,43.10
2018-02-21T02:52:30.345Z,41.90
2018-02-21T02:54:57.856Z,46.23
2018-02-21T02:57:25.384Z,45.53
2018-02-21T02:59:52.886Z,48.63
2018-02-21T03:02:21.178Z,43.13
2018-02-21T03:04:48.686Z,47.53
2018-02-21T03:07:16.194Z,43.00
2018-02-21T03:09:43.718Z,45.87
2018-02-21T03:12:11.231Z,44.40
2018-02-21T03:14:38.755Z,46.47
2018-02-21T03:17:07.020Z,43.70
2018-02-21T03:19:34.547Z,43.90
2018-02-21T03:22:02.055Z,46.20
2018-02-21T03:24:30.342Z,45.70
2018-02-21T03:26:57.857Z,45.67
2018-02-21T03:29:25.382Z,46.43
2018-02-21T03:31:52.894Z,46.10
2018-02-21T03:34:21.183Z,43.30
2018-02-21T03:36:49.453Z,46.13
2018-02-21T03:39:17.747Z,44.60
2018-02-21T03:41:45.252Z,44.87
2018-02-21T03:44:12.774Z,44.37
2018-02-21T03:46:40.325Z,43.63
2018-02-21T03:49:07.854Z,44.67
2018-02-21T03:51:36.158Z,44.80
2018-02-21T03:54:03.823Z,45.77
2018-02-21T03:56:31.367Z,42.53
2018-02-21T03:58:59.677Z,43.30
2018-02-21T04:01:27.178Z,44.93
2018-02-21T04:03:54.702Z,46.27
2018-02-21T04:06:22.206Z,44.87
2018-02-21T04:08:50.505Z,44.63
2018-02-21T04:11:18.010Z,43.87
2018-02-21T04:13:45.534Z,44.63
2018-02-21T04:16:13.082Z,50.03
2018-02-21T04:18:40.638Z,42.57
2018-02-21T04:21:08.207Z,45.70
2018-02-21T04:23:35.758Z,45.37
2018-02-21T04:26:03.266Z,45.67
2018-02-21T04:28:30.870Z,47.60
2018-02-21T04:30:58.434Z,45.00
2018-02-21T04:33:25.985Z,47.63
2018-02-21T04:35:53.972Z,44.23
2018-02-21T04:38:21.538Z,43.97
2018-02-21T04:40:49.037Z,46.87
2018-02-21T04:43:16.639Z,48.07
2018-02-21T04:45:44.165Z,49.30
2018-02-21T04:48:12.454Z,47.03
2018-02-21T04:50:40.755Z,48.30
2018-02-21T04:53:08.282Z,47.77
2018-02-21T04:55:36.555Z,45.77
2018-02-21T05:01:08.751Z,43.37
2018-02-21T05:03:37.039Z,43.37
2018-02-21T05:06:04.551Z,44.30
2018-02-21T05:08:32.071Z,42.67
2018-02-21T05:10:59.574Z,42.77
2018-02-21T05:13:27.099Z,39.27
2018-02-21T05:15:54.608Z,39.93
2018-02-21T05:18:22.899Z,41.03
2018-02-21T05:20:51.171Z,40.13
2018-02-21T05:23:19.542Z,41.20
2018-02-21T05:25:47.827Z,38.53
2018-02-21T05:28:16.122Z,39.40
2018-02-21T05:30:43.656Z,37.23
2018-02-21T05:33:11.938Z,35.40
2018-02-21T05:35:40.227Z,37.73
2018-02-21T05:38:07.735Z,36.00
2018-02-21T05:40:35.258Z,36.83
2018-02-21T05:43:02.803Z,37.13
2018-02-21T05:45:30.367Z,35.40
2018-02-21T05:47:57.882Z,37.53
2018-02-21T05:50:25.405Z,37.23
2018-02-21T05:52:52.907Z,37.27
2018-02-21T05:55:20.426Z,35.60
2018-02-21T05:57:47.935Z,35.83
2018-02-21T06:00:16.222Z,35.77
2018-02-21T06:02:43.730Z,36.67
2018-02-21T06:05:11.275Z,33.27
2018-02-21T06:07:38.778Z,34.37
2018-02-21T06:10:07.071Z,34.90
2018-02-21T06:12:35.346Z,35.63
2018-02-21T06:15:03.635Z,35.00
2018-02-21T06:17:31.141Z,35.40
2018-02-21T06:19:58.662Z,32.33
2018-02-21T06:22:26.171Z,33.67
2018-02-21T06:24:54.481Z,32.07
2018-02-21T06:27:21.998Z,35.00
2018-02-21T06:29:49.519Z,31.03
2018-02-21T06:32:17.026Z,32.47
2018-02-21T06:34:44.623Z,32.30
2018-02-21T06:37:12.122Z,33.00
2018-02-21T06:39:39.647Z,32.20
2018-02-21T06:42:07.150Z,34.87
2018-02-21T06:44:35.439Z,35.60
2018-02-21T06:47:03.732Z,33.67
2018-02-21T06:49:32.422Z,34.40
2018-02-21T06:51:59.941Z,34.53
2018-02-21T06:54:27.470Z,33.77
2018-02-21T06:56:55.003Z,30.57
2018-02-21T06:59:22.590Z,33.33
2018-02-21T07:01:50.159Z,32.63
2018-02-21T07:04:17.656Z,33.50
2018-02-21T07:06:45.958Z,32.50
2018-02-21T07:09:13.481Z,32.87
2018-02-21T07:11:41.772Z,35.70
2018-02-21T07:14:10.063Z,32.73
2018-02-21T07:16:37.627Z,32.53
2018-02-21T07:19:05.195Z,32.57
2018-02-21T07:21:32.706Z,34.33
2018-02-21T07:24:00.248Z,33.50
2018-02-21T07:26:27.754Z,33.30
2018-02-21T07:28:56.034Z,33.97
2018-02-21T07:31:23.559Z,31.33
2018-02-21T07:33:51.069Z,33.87
2018-02-21T07:36:18.591Z,37.17
2018-02-21T07:38:46.863Z,34.70
2018-02-21T07:41:15.151Z,37.30
2018-02-21T07:43:43.426Z,38.90
2018-02-21T07:46:11.715Z,41.23
2018-02-21T07:48:39.282Z,41.00
2018-02-21T07:51:06.814Z,41.10
2018-02-21T07:53:35.095Z,42.70
2018-02-21T07:56:03.392Z,40.73
2018-02-21T07:58:30.906Z,41.03
2018-02-21T08:00:58.505Z,51.22
2018-02-21T08:03:25.965Z,43.50
2018-02-21T08:05:53.490Z,44.97
2018-02-21T08:08:20.994Z,44.30
2018-02-21T08:10:48.535Z,44.33
2018-02-21T08:13:16.099Z,40.53
2018-02-21T08:15:43.679Z,44.00
2018-02-21T08:18:11.911Z,45.33
2018-02-21T08:20:40.202Z,45.60
2018-02-21T08:23:07.766Z,44.60
2018-02-21T08:25:35.291Z,44.10
2018-02-21T08:28:02.801Z,44.70
2018-02-21T08:30:30.326Z,45.17
2018-02-21T08:33:00.648Z,37.50
2018-02-21T08:35:28.942Z,41.47
2018-02-21T08:37:56.450Z,42.80
2018-02-21T08:40:23.970Z,39.70
2018-02-21T08:42:51.514Z,37.70
2018-02-21T08:45:19.038Z,36.77
2018-02-21T08:47:46.543Z,42.43
2018-02-21T08:50:14.067Z,39.73
2018-02-21T08:52:42.350Z,39.60
2018-02-21T08:55:10.652Z,38.80
2018-02-21T08:57:38.167Z,40.17
2018-02-21T09:00:05.689Z,39.93
2018-02-21T09:02:33.198Z,43.90
2018-02-21T09:05:01.487Z,39.40
2018-02-21T09:07:28.995Z,38.20
2018-02-21T09:09:56.528Z,40.00
2018-02-21T09:12:24.048Z,39.40
2018-02-21T09:14:52.338Z,38.97
2018-02-21T09:17:19.854Z,40.00
2018-02-21T09:19:47.371Z,39.77
2018-02-21T09:22:14.922Z,38.70
2018-02-21T09:24:42.427Z,36.00
2018-02-21T09:27:09.949Z,39.83
2018-02-21T09:29:37.456Z,35.13
2018-02-21T09:32:04.981Z,38.07
2018-02-21T09:34:32.482Z,37.40
2018-02-21T09:37:00.819Z,38.07
2018-02-21T09:39:28.351Z,33.93
2018-02-21T09:41:55.861Z,34.60
2018-02-21T09:44:23.455Z,36.80
2018-02-21T09:46:51.022Z,36.33
2018-02-21T09:49:18.583Z,34.70
2018-02-21T09:51:46.094Z,33.40
2018-02-21T09:54:13.599Z,35.63
2018-02-21T09:56:41.159Z,32.73
2018-02-21T09:59:08.719Z,37.53
2018-02-21T10:01:36.238Z,39.93
2018-02-21T10:04:04.507Z,35.57
2018-02-21T10:06:32.040Z,32.37
2018-02-21T10:08:59.542Z,31.90
2018-02-21T10:11:27.830Z,33.03
2018-02-21T10:13:56.094Z,32.70
2018-02-21T10:16:24.383Z,35.90
2018-02-21T10:18:52.651Z,33.73
2018-02-21T10:21:20.930Z,30.20
2018-02-21T10:23:49.197Z,31.90
2018-02-21T10:26:17.483Z,31.40
2018-02-21T10:28:45.751Z,33.70
2018-02-21T10:31:14.043Z,32.93
2018-02-21T10:33:41.550Z,32.00
2018-02-21T10:36:09.171Z,34.83
2018-02-21T10:38:36.674Z,32.97
2018-02-21T10:41:04.186Z,32.40
2018-02-21T10:43:31.690Z,32.67
2018-02-21T10:45:59.214Z,33.93
2018-02-21T10:48:26.715Z,34.47
2018-02-21T10:50:54.315Z,32.10
2018-02-21T10:53:21.878Z,31.20
2018-02-21T10:55:49.375Z,33.63
2018-02-21T10:58:16.899Z,36.63
2018-02-21T11:00:50.031Z,34.03
2018-02-21T11:03:17.547Z,33.00
2018-02-21T11:05:45.050Z,37.37
2018-02-21T11:08:12.569Z,31.40
2018-02-21T11:10:40.081Z,31.03
2018-02-21T11:13:07.599Z,31.70
2018-02-21T11:15:35.103Z,33.27
2018-02-21T11:18:03.435Z,33.30
2018-02-21T11:20:30.894Z,32.50
2018-02-21T11:22:58.405Z,33.20
2018-02-21T11:25:26.669Z,31.90
2018-02-21T11:27:54.969Z,32.37
2018-02-21T11:30:22.471Z,37.50
2018-02-21T11:32:49.986Z,35.30
2018-02-21T11:35:17.492Z,35.37
2018-02-21T11:37:45.083Z,31.03
2018-02-21T11:40:13.360Z,36.20
2018-02-21T11:42:41.622Z,32.37
2018-02-21T11:45:09.161Z,32.67
2018-02-21T11:47:36.661Z,32.30
2018-02-21T11:50:05.046Z,32.90
2018-02-21T11:52:33.314Z,34.10
2018-02-21T11:55:01.596Z,34.20
2018-02-21T11:57:29.167Z,33.40
2018-02-21T11:59:56.682Z,32.70
2018-02-21T12:02:24.283Z,32.40
2018-02-21T12:04:51.842Z,33.70
2018-02-21T12:07:20.078Z,31.93
2018-02-21T12:09:47.617Z,30.87
2018-02-21T12:12:15.107Z,31.70
2018-02-21T12:14:43.395Z,31.87
2018-02-21T12:17:11.663Z,31.60
2018-02-21T12:19:39.949Z,30.40
2018-02-21T12:22:08.819Z,30.77
2018-02-21T12:24:36.338Z,32.70
2018-02-21T12:27:03.837Z,30.23
2018-02-21T12:29:31.378Z,30.00
2018-02-21T12:31:58.873Z,31.30
2018-02-21T12:34:26.389Z,30.63
2018-02-21T12:36:53.893Z,31.83
2018-02-21T12:39:27.054Z,29.23
2018-02-21T12:41:54.643Z,30.43
2018-02-21T12:44:22.216Z,30.17
2018-02-21T12:46:49.727Z,29.70
2018-02-21T12:49:17.222Z,29.30
2018-02-21T12:51:44.746Z,33.10
2018-02-21T12:54:12.343Z,28.73
2018-02-21T12:56:39.903Z,30.60
2018-02-21T12:59:07.399Z,33.67
2018-02-21T13:01:34.974Z,32.37
2018-02-21T13:04:02.452Z,33.47
2018-02-21T13:06:31.278Z,33.70
2018-02-21T13:08:58.783Z,30.63
2018-02-21T13:11:26.303Z,33.27
2018-02-21T13:13:53.808Z,30.57
2018-02-21T13:16:21.322Z,33.10
2018-02-21T13:18:48.813Z,33.40
2018-02-21T13:21:16.430Z,36.27
2018-02-21T13:23:43.975Z,34.07
2018-02-21T13:26:11.502Z,34.53
2018-02-21T13:28:39.766Z,31.43
2018-02-21T13:31:07.366Z,35.90
2018-02-21T13:33:34.874Z,33.40
2018-02-21T13:36:02.387Z,35.20
2018-02-21T13:38:29.939Z,34.80
2018-02-21T13:40:57.471Z,36.03
2018-02-21T13:43:25.750Z,34.47
2018-02-21T13:45:54.046Z,34.50
2018-02-21T13:48:21.544Z,32.13
2018-02-21T13:50:49.054Z,33.20
2018-02-21T13:53:17.341Z,30.43
2018-02-21T13:55:44.858Z,30.13
2018-02-21T13:58:12.354Z,30.97
2018-02-21T14:00:40.639Z,33.10
2018-02-21T14:03:08.139Z,33.07
2018-02-21T14:05:35.650Z,33.63
2018-02-21T14:08:03.152Z,36.23
2018-02-21T14:10:30.670Z,32.10
2018-02-21T14:12:58.235Z,35.03
2018-02-21T14:15:25.755Z,33.27
2018-02-21T14:17:53.254Z,32.33
2018-02-21T14:20:20.774Z,30.83
2018-02-21T14:22:49.074Z,31.13
2018-02-21T14:25:16.590Z,34.77
2018-02-21T14:27:44.179Z,36.33
2018-02-21T14:30:12.470Z,32.87
2018-02-21T14:32:39.976Z,34.03
2018-02-21T14:35:07.499Z,33.10
2018-02-21T14:37:35.003Z,32.10
2018-02-21T14:40:02.510Z,34.27
2018-02-21T14:42:30.023Z,35.03
2018-02-21T14:44:57.617Z,43.33
2018-02-21T14:47:25.140Z,40.23
2018-02-21T14:49:52.642Z,43.63
2018-02-21T14:52:20.162Z,41.87
2018-02-21T14:54:47.675Z,41.43
2018-02-21T14:57:15.194Z,43.97
2018-02-21T14:59:43.471Z,44.80
2018-02-21T15:02:11.763Z,43.40
2018-02-21T15:04:39.278Z,43.10
2018-02-21T15:07:06.799Z,46.50
2018-02-21T15:09:34.306Z,43.80
2018-02-21T15:12:01.827Z,45.10
2018-02-21T15:14:29.334Z,41.57
2018-02-21T15:16:57.622Z,43.87
2018-02-21T15:19:25.890Z,42.87
2018-02-21T15:21:54.173Z,45.10
2018-02-21T15:24:22.447Z,44.77
2018-02-21T15:26:50.735Z,45.47
2018-02-21T15:29:18.239Z,45.93
2018-02-21T15:31:45.766Z,44.80
2018-02-21T15:34:13.316Z,44.03
2018-02-21T15:36:41.583Z,47.03
2018-02-21T15:39:09.099Z,45.10
2018-02-21T15:41:36.625Z,43.70
2018-02-21T15:44:04.136Z,47.70
2018-02-21T15:46:32.435Z,46.33
2018-02-21T15:48:59.952Z,44.20
2018-02-21T15:51:27.482Z,45.23
2018-02-21T15:53:54.987Z,47.77
2018-02-21T15:56:23.286Z,45.13
2018-02-21T15:58:50.796Z,50.20
2018-02-21T16:01:18.323Z,47.40
2018-02-21T16:03:45.827Z,46.70
2018-02-21T16:06:13.428Z,49.80
2018-02-21T16:08:40.979Z,46.90
2018-02-21T16:11:08.510Z,48.10
2018-02-21T16:13:36.786Z,46.23
2018-02-21T16:16:05.082Z,48.87
2018-02-21T16:18:33.354Z,47.57
2018-02-21T16:21:01.652Z,48.17
2018-02-21T16:23:29.167Z,47.83
2018-02-21T16:25:56.699Z,47.97
2018-02-21T16:28:24.226Z,50.33
2018-02-21T16:30:51.752Z,50.70
2018-02-21T16:33:20.027Z,51.00
2018-02-21T16:35:48.330Z,51.10
2018-02-21T16:38:15.879Z,50.20
2018-02-21T16:40:44.155Z,50.73
2018-02-21T16:43:11.684Z,48.97
2018-02-21T16:45:39.194Z,53.20
2018-02-21T16:48:06.722Z,51.70
2018-02-21T16:50:35.001Z,52.10
2018-02-21T16:53:03.394Z,49.00
2018-02-21T16:55:30.902Z,53.23
2018-02-21T16:57:58.421Z,52.47
2018-02-21T17:00:25.934Z,53.83
2018-02-21T17:02:53.944Z,51.87
2018-02-21T17:05:21.450Z,51.97
2018-02-21T17:07:49.774Z,53.43
2018-02-21T17:10:17.286Z,53.03
2018-02-21T17:12:44.898Z,55.17
2018-02-21T17:15:12.450Z,51.70
2018-02-21T17:17:40.011Z,54.03
2018-02-21T17:20:07.518Z,50.50
2018-02-21T17:22:35.052Z,52.53
2018-02-21T17:25:02.566Z,53.53
2018-02-21T17:27:30.854Z,52.07
2018-02-21T17:29:58.362Z,51.97
2018-02-21T17:32:25.886Z,51.97
2018-02-21T17:34:53.394Z,48.50
2018-02-21T17:37:22.430Z,50.00
2018-02-21T17:39:49.938Z,52.00
2018-02-21T17:42:17.471Z,55.00
2018-02-21T17:44:44.986Z,50.77
2018-02-21T17:47:13.279Z,54.67
2018-02-21T17:49:40.839Z,55.97
2018-02-21T17:52:08.370Z,51.90
2018-02-21T17:54:36.675Z,56.77
2018-02-21T17:57:04.231Z,59.07
2018-02-21T17:59:31.739Z,54.03
2018-02-21T18:01:59.269Z,53.63
2018-02-21T18:04:26.774Z,50.60
2018-02-21T18:06:54.295Z,51.93
2018-02-21T18:09:21.799Z,50.60
2018-02-21T18:11:50.095Z,53.20
2018-02-21T18:14:17.606Z,52.17
2018-02-21T18:16:45.147Z,54.00
2018-02-21T18:19:12.657Z,50.30
2018-02-21T18:21:46.581Z,53.73
2018-02-21T18:24:14.094Z,56.43
2018-02-21T18:26:41.602Z,59.57
2018-02-21T18:29:09.155Z,57.40
2018-02-21T18:31:36.670Z,57.73
2018-02-21T18:34:04.199Z,57.90
2018-02-21T18:36:31.737Z,58.53
2018-02-21T18:38:59.272Z,54.80
2018-02-21T18:41:27.552Z,55.80
2018-02-21T18:43:55.947Z,55.07
2018-02-21T18:46:23.500Z,54.10
2018-02-21T18:48:51.031Z,54.70
2018-02-21T18:51:18.539Z,55.90
2018-02-21T18:53:46.063Z,58.77
2018-02-21T18:56:14.346Z,53.60
2018-02-21T18:58:41.866Z,55.67
2018-02-21T19:01:09.375Z,56.27
2018-02-21T19:03:36.898Z,56.17
2018-02-21T19:06:05.179Z,56.20
2018-02-21T19:08:33.477Z,53.90
2018-02-21T19:11:00.990Z,53.47
2018-02-21T19:13:28.527Z,53.20
2018-02-21T19:15:56.030Z,51.10
2018-02-21T19:18:24.337Z,53.10
2018-02-21T19:20:51.842Z,53.70
2018-02-21T19:23:19.450Z,53.80
2018-02-21T19:25:47.011Z,55.57
2018-02-21T19:28:14.535Z,55.53
2018-02-21T19:30:42.805Z,53.13
2018-02-21T19:33:10.403Z,54.30
2018-02-21T19:35:37.914Z,53.87
2018-02-21T19:38:05.446Z,57.40
2018-02-21T19:40:32.950Z,57.53
2018-02-21T19:43:01.247Z,59.20
2018-02-21T19:45:28.809Z,55.77
2018-02-21T19:47:56.373Z,61.53
2018-02-21T19:50:23.929Z,56.67
2018-02-21T19:52:51.454Z,55.17
2018-02-21T19:55:19.726Z,55.13
2018-02-21T19:57:47.246Z,55.23
2018-02-21T20:00:14.758Z,57.63
2018-02-21T20:02:43.051Z,64.23
2018-02-21T20:05:10.562Z,57.37
2018-02-21T20:07:38.087Z,52.10
2018-02-21T20:10:05.596Z,49.10
2018-02-21T20:12:33.878Z,48.30
2018-02-21T20:15:02.174Z,50.50
2018-02-21T20:17:30.459Z,49.57
2018-02-21T20:19:57.993Z,47.60
2018-02-21T20:22:26.270Z,47.43
2018-02-21T20:24:54.688Z,49.40
2018-02-21T20:27:22.269Z,48.10
2018-02-21T20:29:49.819Z,47.87
2018-02-21T20:32:17.337Z,50.47
2018-02-21T20:34:45.630Z,50.07
2018-02-21T20:37:13.139Z,47.80
2018-02-21T20:39:41.432Z,53.70
2018-02-21T20:42:10.413Z,47.70
2018-02-21T20:44:37.933Z,49.47
2018-02-21T20:47:05.441Z,47.97
2018-02-21T20:49:33.730Z,51.20
2018-02-21T20:52:02.007Z,51.00
2018-02-21T20:54:35.564Z,51.73
2018-02-21T20:57:04.034Z,50.77
2018-02-21T20:59:39.651Z,48.73
2018-02-21T21:02:07.275Z,51.70
2018-02-21T21:04:34.806Z,48.03
2018-02-21T21:07:02.319Z,46.33
2018-02-21T21:09:29.858Z,48.07
2018-02-21T21:11:57.365Z,49.43
2018-02-21T21:14:24.902Z,45.73
2018-02-21T21:16:52.411Z,47.93
2018-02-21T21:19:19.956Z,48.10
2018-02-21T21:21:47.462Z,50.70
2018-02-21T21:24:15.852Z,50.43
2018-02-21T21:26:43.429Z,51.23
2018-02-21T21:29:11.050Z,51.10
2018-02-21T21:31:39.325Z,46.73
2018-02-21T21:34:07.647Z,47.30
2018-02-21T21:36:35.155Z,46.37
2018-02-21T21:39:02.679Z,46.60
2018-02-21T21:41:30.187Z,47.47
2018-02-21T21:43:58.498Z,48.73
2018-02-21T21:46:26.007Z,48.40
2018-02-21T21:48:54.317Z,46.33
2018-02-21T21:51:21.834Z,48.23
2018-02-21T21:53:49.366Z,45.70
2018-02-21T21:56:16.881Z,46.70
2018-02-21T21:58:44.398Z,44.03
2018-02-21T22:01:11.902Z,44.80
2018-02-21T22:03:39.431Z,45.63
2018-02-21T22:06:06.934Z,49.83
2018-02-21T22:08:34.453Z,46.53
2018-02-21T22:11:02.726Z,46.43
2018-02-21T22:13:31.014Z,49.67
2018-02-21T22:15:59.282Z,46.70
2018-02-21T22:18:27.606Z,49.67
2018-02-21T22:20:55.134Z,48.00
2018-02-21T22:23:22.646Z,49.57
2018-02-21T22:25:50.224Z,46.67
2018-02-21T22:28:17.706Z,45.77
2018-02-21T22:30:46.000Z,50.50
2018-02-21T22:33:13.544Z,50.03
2018-02-21T22:35:41.082Z,45.90
2018-02-21T22:38:09.354Z,48.50
2018-02-21T22:40:36.886Z,51.50
2018-02-21T22:43:04.391Z,53.50
2018-02-21T22:45:32.687Z,52.80
2018-02-21T22:48:00.202Z,52.90
2018-02-21T22:50:27.718Z,52.03
2018-02-21T22:52:55.250Z,55.40
2018-02-21T22:55:22.780Z,50.27
2018-02-21T22:57:51.059Z,52.43
2018-02-21T23:00:19.359Z,49.47
2018-02-21T23:02:46.879Z,51.50
2018-02-21T23:05:14.477Z,51.40
2018-02-21T23:07:41.994Z,51.27
2018-02-21T23:10:09.518Z,51.87
2018-02-21T23:12:37.027Z,55.93
2018-02-21T23:15:05.322Z,51.73
2018-02-21T23:17:33.610Z,53.33
2018-02-21T23:20:01.166Z,50.30
2018-02-21T23:22:28.684Z,52.17
2018-02-21T23:24:56.206Z,50.13
2018-02-21T23:27:23.714Z,55.33
2018-02-21T23:29:52.031Z,51.03
2018-02-21T23:32:19.542Z,53.80
2018-02-21T23:34:48.781Z,55.57
2018-02-21T23:37:16.282Z,50.27
2018-02-21T23:39:43.806Z,51.83
2018-02-21T23:42:11.310Z,52.10
2018-02-21T23:44:38.840Z,55.37
2018-02-21T23:47:06.346Z,53.10
2018-02-21T23:49:34.634Z,54.53
2018-02-21T23:52:02.152Z,51.73
2018-02-21T23:54:29.677Z,55.03
2018-02-21T23:56:57.178Z,58.07
2018-02-21T23:59:24.698Z,53.33
